createdAt,value
2017-12-01T00:00:04.955Z,47
2017-12-01T00:15:05.012Z,45
2017-12-01T00:30:12.358Z,47
2017-12-01T00:45:04.582Z,46
2017-12-01T01:00:05.710Z,45
2017-12-01T01:15:05.362Z,47
2017-12-01T01:30:05.476Z,47
2017-12-01T01:45:04.748Z,46
2017-12-01T02:00:04.858Z,46
2017-12-01T02:15:05.342Z,46
2017-12-01T02:30:05.005Z,47
2017-12-01T02:45:05.478Z,47
2017-12-01T03:00:05.878Z,47
2017-12-01T03:15:04.833Z,47
2017-12-01T03:30:04.496Z,47
2017-12-01T03:45:04.793Z,46
2017-12-01T04:00:04.672Z,50
2017-12-01T04:15:04.580Z,47
2017-12-01T04:30:05.334Z,47
2017-12-01T04:45:08.344Z,48
2017-12-01T05:00:04.707Z,50
2017-12-01T05:15:06.156Z,53
2017-12-01T05:30:12.221Z,49
2017-12-01T05:45:06.359Z,52
2017-12-01T06:00:04.680Z,61
2017-12-01T06:15:07.812Z,60
2017-12-01T06:30:08.021Z,53
2017-12-01T06:45:10.494Z,57
2017-12-01T07:00:04.370Z,60
2017-12-01T07:15:04.825Z,59
2017-12-01T07:30:05.981Z,56
2017-12-01T07:45:04.865Z,59
2017-12-01T08:00:04.329Z,57
2017-12-01T08:15:04.791Z,57
2017-12-01T08:30:04.461Z,56
2017-12-01T08:45:04.831Z,56
2017-12-01T09:00:04.321Z,57
2017-12-01T09:15:04.254Z,54
2017-12-01T09:30:04.592Z,51
2017-12-01T09:45:04.959Z,51
2017-12-01T10:00:04.868Z,55
2017-12-01T10:15:05.234Z,52
2017-12-01T10:30:04.921Z,52
2017-12-01T10:45:04.234Z,53
2017-12-01T11:00:05.626Z,53
2017-12-01T11:15:07.617Z,56
2017-12-01T11:30:08.383Z,55
2017-12-01T11:45:06.307Z,54
2017-12-01T12:00:05.222Z,55
2017-12-01T12:15:05.173Z,55
2017-12-01T12:30:04.355Z,50
2017-12-01T12:45:06.301Z,49
2017-12-01T13:00:05.280Z,49
2017-12-01T13:15:05.721Z,53
2017-12-01T13:30:04.278Z,52
2017-12-01T13:45:04.652Z,53
2017-12-01T14:00:04.520Z,51
2017-12-01T14:15:05.009Z,50
2017-12-01T14:30:05.165Z,52
2017-12-01T14:45:05.154Z,50
2017-12-01T15:00:04.655Z,50
2017-12-01T15:15:05.617Z,51
2017-12-01T15:30:12.455Z,59
2017-12-01T15:45:04.772Z,52
2017-12-01T16:00:04.680Z,53
2017-12-01T16:15:04.905Z,52
2017-12-01T16:30:05.026Z,54
2017-12-01T16:45:04.905Z,53
2017-12-01T17:00:04.316Z,52
2017-12-01T17:15:05.824Z,55
2017-12-01T17:30:05.045Z,55
2017-12-01T17:45:05.302Z,55
2017-12-01T18:00:05.329Z,54
2017-12-01T18:15:04.830Z,52
2017-12-01T18:30:08.118Z,53
2017-12-01T18:45:37.276Z,51
2017-12-01T19:00:08.400Z,52
2017-12-01T19:15:07.426Z,51
2017-12-01T19:30:05.578Z,54
2017-12-01T19:45:04.740Z,53
2017-12-01T20:00:04.987Z,51
2017-12-01T20:15:04.404Z,53
2017-12-01T20:30:04.922Z,52
2017-12-01T20:45:04.601Z,53
2017-12-01T21:00:04.963Z,52
2017-12-01T21:15:04.740Z,51
2017-12-01T21:30:04.927Z,51
2017-12-01T21:45:04.660Z,52
2017-12-01T22:00:05.778Z,52
2017-12-01T22:15:07.804Z,51
2017-12-01T22:30:05.669Z,52
2017-12-01T22:45:05.438Z,52
2017-12-01T23:00:08.703Z,51
2017-12-01T23:15:04.912Z,51
2017-12-01T23:30:07.792Z,51
2017-12-01T23:45:06.461Z,53
